createdAt,value
2022-12-26T00:00:30.982Z,505.00
2022-12-26T00:01:30.892Z,508.00
2022-12-26T00:02:31.053Z,503.00
2022-12-26T00:03:31.091Z,504.00
2022-12-26T00:04:48.575Z,505.00
2022-12-26T00:06:30.882Z,505.00
2022-12-26T00:07:30.900Z,506.00
2022-12-26T00:08:30.889Z,507.00
2022-12-26T00:10:30.880Z,503.00
2022-12-26T00:11:30.892Z,505.00
2022-12-26T00:12:30.888Z,504.00
2022-12-26T00:13:38.331Z,504.00
2022-12-26T00:14:30.870Z,505.00
2022-12-26T00:15:30.863Z,504.00
2022-12-26T00:16:30.886Z,505.00
2022-12-26T00:17:30.861Z,506.00
2022-12-26T00:18:30.849Z,504.00
2022-12-26T00:19:30.863Z,508.00
2022-12-26T00:20:30.849Z,507.00
2022-12-26T00:22:30.846Z,502.00
2022-12-26T00:23:30.833Z,505.00
2022-12-26T00:24:30.840Z,503.00
2022-12-26T00:25:30.834Z,503.00
2022-12-26T00:26:30.834Z,506.00
2022-12-26T00:27:30.841Z,503.00
2022-12-26T00:28:30.865Z,503.00
2022-12-26T00:29:30.839Z,504.00
2022-12-26T00:30:30.830Z,502.00
2022-12-26T00:31:30.860Z,502.00
2022-12-26T00:32:30.833Z,505.00
2022-12-26T00:33:30.840Z,505.00
2022-12-26T00:34:30.828Z,505.00
2022-12-26T00:35:30.819Z,506.00
2022-12-26T00:36:30.822Z,505.00
2022-12-26T00:37:30.833Z,507.00
2022-12-26T00:38:30.827Z,507.00
2022-12-26T00:39:30.842Z,505.00
2022-12-26T00:40:30.832Z,506.00
2022-12-26T00:41:30.847Z,504.00
2022-12-26T00:42:30.815Z,502.00
2022-12-26T00:43:30.814Z,507.00
2022-12-26T00:44:30.832Z,506.00
2022-12-26T00:45:30.815Z,506.00
2022-12-26T00:46:30.933Z,505.00
2022-12-26T00:47:30.807Z,507.00
2022-12-26T00:48:30.807Z,506.00
2022-12-26T00:50:14.119Z,512.00
2022-12-26T00:51:30.796Z,509.00
2022-12-26T00:52:30.789Z,510.00
2022-12-26T00:53:30.778Z,510.00
2022-12-26T00:55:30.752Z,509.00
2022-12-26T00:56:30.754Z,504.00
2022-12-26T00:57:31.115Z,508.00
2022-12-26T00:58:30.757Z,509.00
2022-12-26T00:59:30.746Z,506.00
2022-12-26T01:00:30.753Z,507.00
2022-12-26T01:01:30.954Z,508.00
2022-12-26T01:02:30.860Z,511.00
2022-12-26T01:03:30.865Z,510.00
2022-12-26T01:04:30.731Z,509.00
2022-12-26T01:05:30.723Z,511.00
2022-12-26T01:06:30.719Z,508.00
2022-12-26T01:07:30.727Z,509.00
2022-12-26T01:08:30.701Z,509.00
2022-12-26T01:09:30.723Z,509.00
2022-12-26T01:10:30.713Z,509.00
2022-12-26T01:11:30.687Z,507.00
2022-12-26T01:12:30.729Z,508.00
2022-12-26T01:13:30.690Z,508.00
2022-12-26T01:14:30.663Z,509.00
2022-12-26T01:15:30.669Z,511.00
2022-12-26T01:16:30.676Z,506.00
2022-12-26T01:17:30.655Z,511.00
2022-12-26T01:18:30.657Z,509.00
2022-12-26T01:19:30.641Z,510.00
2022-12-26T01:20:30.633Z,510.00
2022-12-26T01:21:30.642Z,512.00
2022-12-26T01:22:30.654Z,509.00
2022-12-26T01:23:30.626Z,507.00
2022-12-26T01:24:30.624Z,511.00
2022-12-26T01:25:30.644Z,507.00
2022-12-26T01:26:30.612Z,510.00
2022-12-26T01:27:30.605Z,509.00
2022-12-26T01:28:30.641Z,508.00
2022-12-26T01:29:30.619Z,510.00
2022-12-26T01:30:30.600Z,510.00
2022-12-26T01:31:30.679Z,510.00
2022-12-26T01:32:30.611Z,510.00
2022-12-26T01:33:30.592Z,509.00
2022-12-26T01:34:30.586Z,509.00
2022-12-26T01:35:30.602Z,514.00
2022-12-26T01:36:30.585Z,510.00
2022-12-26T01:37:30.579Z,508.00
2022-12-26T01:38:30.568Z,512.00
2022-12-26T01:39:30.594Z,511.00
2022-12-26T01:40:30.569Z,510.00
2022-12-26T01:41:30.560Z,511.00
2022-12-26T01:42:30.552Z,515.00
2022-12-26T01:43:30.554Z,511.00
2022-12-26T01:44:30.553Z,511.00
2022-12-26T01:45:30.606Z,512.00
2022-12-26T01:46:30.525Z,508.00
2022-12-26T01:47:30.527Z,514.00
2022-12-26T01:48:30.533Z,509.00
2022-12-26T01:49:30.590Z,505.00
2022-12-26T01:50:30.535Z,512.00
2022-12-26T01:51:30.528Z,512.00
2022-12-26T01:52:30.501Z,509.00
2022-12-26T01:53:30.508Z,507.00
2022-12-26T01:54:41.370Z,510.00
2022-12-26T01:56:30.494Z,511.00
2022-12-26T01:57:30.493Z,511.00
2022-12-26T01:58:30.503Z,513.00
2022-12-26T01:59:30.467Z,514.00
2022-12-26T02:00:30.455Z,510.00
2022-12-26T02:01:30.545Z,513.00
2022-12-26T02:02:30.611Z,510.00
2022-12-26T02:03:30.435Z,507.00
2022-12-26T02:04:30.439Z,507.00
2022-12-26T02:05:30.422Z,508.00
2022-12-26T02:06:30.429Z,508.00
2022-12-26T02:07:30.425Z,510.00
2022-12-26T02:08:30.425Z,511.00
2022-12-26T02:09:30.411Z,508.00
2022-12-26T02:10:30.405Z,511.00
2022-12-26T02:11:30.407Z,515.00
2022-12-26T02:12:34.783Z,509.00
2022-12-26T02:14:30.402Z,510.00
2022-12-26T02:15:30.393Z,509.00
2022-12-26T02:16:30.435Z,511.00
2022-12-26T02:17:30.391Z,510.00
2022-12-26T02:40:30.321Z,509.00
2022-12-26T02:45:30.294Z,509.00
2022-12-26T02:46:30.362Z,510.00
2022-12-26T02:47:30.291Z,513.00
2022-12-26T02:48:30.291Z,509.00
2022-12-26T02:49:30.301Z,511.00
2022-12-26T02:50:30.289Z,508.00
2022-12-26T02:51:30.289Z,510.00
2022-12-26T02:52:30.266Z,511.00
2022-12-26T02:53:30.267Z,511.00
2022-12-26T02:54:30.277Z,510.00
2022-12-26T02:55:30.280Z,508.00
2022-12-26T02:56:30.269Z,512.00
2022-12-26T02:57:30.270Z,508.00
2022-12-26T02:58:30.256Z,509.00
2022-12-26T02:59:55.467Z,511.00
2022-12-26T03:00:31.244Z,512.00
2022-12-26T03:01:30.347Z,511.00
2022-12-26T03:02:30.529Z,509.00
2022-12-26T03:03:30.328Z,512.00
2022-12-26T03:04:30.248Z,509.00
2022-12-26T03:05:30.236Z,507.00
2022-12-26T03:06:30.223Z,509.00
2022-12-26T03:07:30.233Z,511.00
2022-12-26T03:08:30.221Z,507.00
2022-12-26T03:09:30.227Z,509.00
2022-12-26T03:10:30.237Z,507.00
2022-12-26T03:11:30.222Z,508.00
2022-12-26T03:12:30.229Z,506.00
2022-12-26T03:13:30.224Z,511.00
2022-12-26T03:14:30.244Z,508.00
2022-12-26T03:15:30.226Z,507.00
2022-12-26T03:16:30.253Z,510.00
2022-12-26T03:17:30.272Z,508.00
2022-12-26T03:18:57.756Z,511.00
2022-12-26T03:19:31.219Z,511.00
2022-12-26T03:20:30.223Z,508.00
2022-12-26T03:21:30.214Z,508.00
2022-12-26T03:22:30.208Z,508.00
2022-12-26T03:23:30.207Z,509.00
2022-12-26T03:24:30.205Z,505.00
2022-12-26T03:25:30.209Z,510.00
2022-12-26T03:26:30.191Z,507.00
2022-12-26T03:27:30.201Z,511.00
2022-12-26T03:28:30.192Z,502.00
2022-12-26T03:29:30.202Z,507.00
2022-12-26T03:30:30.255Z,503.00
2022-12-26T03:31:30.187Z,507.00
2022-12-26T03:32:30.207Z,511.00
2022-12-26T03:33:30.206Z,508.00
2022-12-26T03:34:30.227Z,507.00
2022-12-26T03:35:31.160Z,507.00
2022-12-26T03:36:30.192Z,510.00
2022-12-26T03:37:47.314Z,506.00
2022-12-26T03:38:31.208Z,506.00
2022-12-26T03:39:30.202Z,506.00
2022-12-26T03:40:30.196Z,506.00
2022-12-26T03:41:30.197Z,506.00
2022-12-26T03:42:30.177Z,506.00
2022-12-26T03:43:30.200Z,505.00
2022-12-26T03:44:30.182Z,508.00
2022-12-26T03:45:30.188Z,503.00
2022-12-26T03:46:30.265Z,507.00
2022-12-26T03:47:30.175Z,507.00
2022-12-26T03:48:30.176Z,503.00
2022-12-26T03:49:30.175Z,504.00
2022-12-26T03:50:30.163Z,503.00
2022-12-26T03:51:30.150Z,506.00
2022-12-26T03:52:30.171Z,505.00
2022-12-26T03:53:30.166Z,505.00
2022-12-26T03:54:30.146Z,504.00
2022-12-26T03:55:30.152Z,508.00
2022-12-26T03:56:32.584Z,507.00
2022-12-26T03:57:30.126Z,510.00
2022-12-26T03:58:30.142Z,507.00
2022-12-26T03:59:30.198Z,503.00
2022-12-26T04:00:30.146Z,502.00
2022-12-26T04:01:30.205Z,507.00
2022-12-26T04:03:30.154Z,503.00
2022-12-26T04:04:30.194Z,503.00
2022-12-26T04:05:30.100Z,500.00
2022-12-26T04:07:30.134Z,504.00
2022-12-26T04:18:30.678Z,507.00
2022-12-26T04:20:30.115Z,507.00
2022-12-26T04:24:30.662Z,504.00
2022-12-26T04:26:30.203Z,503.00
2022-12-26T04:27:30.671Z,504.00
2022-12-26T04:29:30.662Z,504.00
2022-12-26T04:31:30.266Z,504.00
2022-12-26T04:34:30.670Z,503.00
2022-12-26T04:36:30.192Z,504.00
2022-12-26T04:39:30.670Z,505.00
2022-12-26T04:40:30.683Z,504.00
2022-12-26T04:41:30.668Z,503.00
2022-12-26T04:42:30.686Z,502.00
2022-12-26T04:43:50.501Z,508.00
2022-12-26T04:44:31.135Z,508.00
2022-12-26T04:45:30.147Z,508.00
2022-12-26T04:46:30.209Z,509.00
2022-12-26T04:47:30.149Z,507.00
2022-12-26T04:48:30.155Z,510.00
2022-12-26T04:49:30.157Z,503.00
2022-12-26T04:50:30.119Z,506.00
2022-12-26T04:51:30.140Z,506.00
2022-12-26T04:52:30.141Z,505.00
2022-12-26T04:53:30.670Z,503.00
2022-12-26T04:54:30.172Z,504.00
2022-12-26T04:55:30.149Z,509.00
2022-12-26T04:56:30.143Z,504.00
2022-12-26T04:57:30.678Z,506.00
2022-12-26T04:58:30.683Z,504.00
2022-12-26T04:59:30.275Z,506.00
2022-12-26T05:00:30.122Z,504.00
2022-12-26T05:01:30.224Z,511.00
2022-12-26T05:02:30.351Z,505.00
2022-12-26T05:03:30.173Z,503.00
2022-12-26T05:04:30.676Z,506.00
2022-12-26T05:05:30.683Z,504.00
2022-12-26T05:06:30.208Z,508.00
2022-12-26T05:07:30.691Z,507.00
2022-12-26T05:08:30.183Z,503.00
2022-12-26T05:09:30.673Z,506.00
2022-12-26T05:10:30.197Z,506.00
2022-12-26T05:11:30.186Z,511.00
2022-12-26T05:12:30.208Z,507.00
2022-12-26T05:13:30.224Z,507.00
2022-12-26T05:14:30.190Z,508.00
2022-12-26T05:15:30.280Z,510.00
2022-12-26T05:16:30.307Z,510.00
2022-12-26T05:17:30.695Z,504.00
2022-12-26T05:18:30.261Z,505.00
2022-12-26T05:19:30.686Z,506.00
2022-12-26T05:20:30.198Z,503.00
2022-12-26T05:21:30.681Z,503.00
2022-12-26T05:22:30.195Z,505.00
2022-12-26T05:23:30.678Z,504.00
2022-12-26T05:24:30.195Z,502.00
2022-12-26T05:25:30.682Z,504.00
2022-12-26T05:26:30.683Z,505.00
2022-12-26T05:27:30.220Z,503.00
2022-12-26T05:28:30.695Z,505.00
2022-12-26T05:29:30.679Z,503.00
2022-12-26T05:30:30.677Z,504.00
2022-12-26T05:31:35.384Z,502.00
2022-12-26T05:33:30.686Z,503.00
2022-12-26T05:34:30.150Z,502.00
2022-12-26T05:35:30.233Z,503.00
2022-12-26T05:36:30.215Z,506.00
2022-12-26T05:37:30.242Z,502.00
2022-12-26T05:38:30.700Z,501.00
2022-12-26T05:39:30.130Z,502.00
2022-12-26T05:41:30.261Z,503.00
2022-12-26T05:42:30.257Z,505.00
2022-12-26T05:43:30.140Z,500.00
2022-12-26T05:44:30.255Z,504.00
2022-12-26T05:45:30.324Z,505.00
2022-12-26T05:46:30.202Z,501.00
2022-12-26T05:47:30.163Z,504.00
2022-12-26T05:48:30.153Z,504.00
2022-12-26T05:49:30.123Z,502.00
2022-12-26T05:50:30.145Z,507.00
2022-12-26T05:51:30.116Z,507.00
2022-12-26T05:52:30.133Z,501.00
2022-12-26T05:53:30.187Z,503.00
2022-12-26T05:54:30.260Z,504.00
2022-12-26T05:55:30.141Z,500.00
2022-12-26T05:56:30.119Z,503.00
2022-12-26T05:57:30.123Z,504.00
2022-12-26T05:58:30.111Z,500.00
2022-12-26T05:59:30.116Z,505.00
2022-12-26T06:00:30.175Z,501.00
2022-12-26T06:01:30.562Z,502.00
2022-12-26T06:02:30.220Z,502.00
2022-12-26T06:03:30.147Z,500.00
2022-12-26T06:04:30.107Z,504.00
2022-12-26T06:05:30.099Z,502.00
2022-12-26T06:07:30.097Z,501.00
2022-12-26T06:08:30.128Z,500.00
2022-12-26T06:09:30.143Z,503.00
2022-12-26T07:17:30.720Z,503.00
2022-12-26T08:44:30.278Z,507.00
2022-12-26T15:51:14.011Z,500.00
2022-12-26T15:52:13.993Z,500.00
2022-12-26T15:53:13.975Z,500.00
2022-12-26T15:54:13.929Z,500.00
2022-12-26T15:55:13.929Z,500.00
2022-12-26T15:56:13.889Z,500.00
2022-12-26T15:57:13.853Z,503.00
2022-12-26T15:58:13.821Z,504.00
2022-12-26T15:59:13.790Z,500.00
2022-12-26T16:00:13.784Z,493.00
2022-12-26T16:01:13.825Z,496.00
2022-12-26T16:02:13.816Z,498.00
2022-12-26T16:03:13.748Z,503.00
2022-12-26T16:04:13.688Z,501.00
2022-12-26T16:05:13.664Z,500.00
2022-12-26T16:06:13.635Z,501.00
2022-12-26T16:07:13.605Z,502.00
2022-12-26T16:08:13.610Z,504.00
2022-12-26T16:09:13.553Z,502.00
2022-12-26T16:10:13.518Z,504.00
2022-12-26T16:11:13.493Z,504.00
2022-12-26T16:12:13.516Z,503.00
2022-12-26T16:13:13.457Z,506.00
2022-12-26T16:14:13.444Z,500.00
2022-12-26T16:15:13.427Z,507.00
2022-12-26T16:16:13.413Z,502.00
2022-12-26T16:17:13.369Z,505.00
2022-12-26T16:18:13.371Z,505.00
2022-12-26T16:19:13.322Z,509.00
2022-12-26T16:20:18.590Z,511.00
2022-12-26T16:21:14.279Z,511.00
2022-12-26T16:22:13.257Z,510.00
2022-12-26T16:23:13.367Z,509.00
2022-12-26T16:24:13.195Z,507.00
2022-12-26T16:25:13.180Z,502.00
2022-12-26T16:26:13.147Z,502.00
2022-12-26T16:27:13.120Z,506.00
2022-12-26T16:28:13.092Z,503.00
2022-12-26T16:29:13.070Z,504.00
2022-12-26T16:30:13.111Z,506.00
2022-12-26T16:31:13.019Z,500.00
2022-12-26T16:32:13.015Z,506.00
2022-12-26T16:33:13.742Z,503.00
2022-12-26T16:34:12.961Z,504.00
2022-12-26T16:35:12.988Z,507.00
2022-12-26T16:36:12.963Z,504.00
2022-12-26T16:37:13.726Z,507.00
2022-12-26T16:38:13.235Z,506.00
2022-12-26T16:39:12.873Z,505.00
2022-12-26T16:40:12.866Z,506.00
2022-12-26T16:41:12.769Z,506.00
2022-12-26T16:42:12.751Z,507.00
2022-12-26T16:43:12.733Z,504.00
2022-12-26T16:44:12.719Z,500.00
2022-12-26T16:45:12.703Z,507.00
2022-12-26T16:46:12.702Z,503.00
2022-12-26T16:47:12.677Z,511.00
2022-12-26T16:48:12.601Z,507.00
2022-12-26T16:49:12.606Z,505.00
2022-12-26T16:50:12.548Z,507.00
2022-12-26T16:51:12.552Z,509.00
2022-12-26T16:52:13.225Z,504.00
2022-12-26T16:53:13.257Z,505.00
2022-12-26T16:54:12.476Z,508.00
2022-12-26T16:55:12.553Z,508.00
2022-12-26T16:56:12.536Z,507.00
2022-12-26T16:57:12.516Z,506.00
2022-12-26T16:58:14.251Z,507.00
2022-12-26T16:59:16.994Z,508.00
2022-12-26T17:00:13.159Z,508.00
2022-12-26T17:01:12.360Z,508.00
2022-12-26T17:02:12.363Z,509.00
2022-12-26T17:03:12.344Z,506.00
2022-12-26T17:04:12.253Z,509.00
2022-12-26T17:05:12.242Z,512.00
2022-12-26T17:06:12.269Z,509.00
2022-12-26T17:07:12.744Z,506.00
2022-12-26T17:08:12.250Z,513.00
2022-12-26T17:09:12.263Z,509.00
2022-12-26T17:10:13.975Z,510.00
2022-12-26T17:11:12.176Z,509.00
2022-12-26T17:12:12.176Z,514.00
2022-12-26T17:13:12.027Z,510.00
2022-12-26T17:14:12.048Z,509.00
2022-12-26T17:15:12.058Z,509.00
2022-12-26T17:16:12.031Z,512.00
2022-12-26T17:17:11.932Z,508.00
2022-12-26T17:18:11.973Z,509.00
2022-12-26T17:19:11.908Z,509.00
2022-12-26T17:20:11.946Z,513.00
2022-12-26T17:21:11.851Z,512.00
2022-12-26T17:22:11.838Z,514.00
2022-12-26T17:23:11.806Z,508.00
2022-12-26T17:24:11.822Z,510.00
2022-12-26T17:25:11.773Z,510.00
2022-12-26T17:26:11.753Z,514.00
2022-12-26T17:27:11.750Z,512.00
2022-12-26T17:28:11.717Z,515.00
2022-12-26T17:29:11.707Z,514.00
2022-12-26T17:30:11.673Z,515.00
2022-12-26T17:31:11.676Z,514.00
2022-12-26T17:32:11.644Z,514.00
2022-12-26T17:33:11.634Z,514.00
2022-12-26T17:34:11.642Z,511.00
2022-12-26T17:35:11.594Z,513.00
2022-12-26T17:37:20.264Z,516.00
2022-12-26T17:38:12.554Z,516.00
2022-12-26T17:39:11.535Z,517.00
2022-12-26T17:40:11.496Z,516.00
2022-12-26T17:41:11.470Z,517.00
2022-12-26T17:42:11.443Z,517.00
2022-12-26T17:43:11.431Z,511.00
2022-12-26T17:44:11.408Z,511.00
2022-12-26T17:45:11.372Z,514.00
2022-12-26T17:46:11.399Z,518.00
2022-12-26T17:47:11.336Z,518.00
2022-12-26T17:48:11.315Z,517.00
2022-12-26T17:49:11.309Z,513.00
2022-12-26T17:50:11.284Z,513.00
2022-12-26T17:51:11.252Z,516.00
2022-12-26T17:52:11.226Z,514.00
2022-12-26T17:53:11.212Z,519.00
2022-12-26T17:54:11.203Z,516.00
2022-12-26T17:55:11.179Z,516.00
2022-12-26T17:56:11.145Z,517.00
2022-12-26T17:57:11.133Z,514.00
2022-12-26T17:58:11.119Z,508.00
2022-12-26T17:59:11.115Z,515.00
2022-12-26T18:00:11.081Z,512.00
2022-12-26T18:01:14.672Z,512.00
2022-12-26T18:02:12.285Z,513.00
2022-12-26T18:03:11.084Z,513.00
2022-12-26T18:04:11.008Z,514.00
2022-12-26T18:05:10.980Z,511.00
2022-12-26T18:06:10.956Z,516.00
2022-12-26T18:07:10.958Z,518.00
2022-12-26T18:08:10.925Z,515.00
2022-12-26T18:09:10.932Z,517.00
2022-12-26T18:10:10.896Z,512.00
2022-12-26T18:11:10.869Z,512.00
2022-12-26T18:12:10.840Z,515.00
2022-12-26T18:13:10.866Z,515.00
2022-12-26T18:14:10.832Z,515.00
2022-12-26T18:15:10.819Z,513.00
2022-12-26T18:16:10.858Z,514.00
2022-12-26T18:17:10.775Z,512.00
2022-12-26T18:18:10.748Z,515.00
2022-12-26T18:19:10.748Z,511.00
2022-12-26T18:20:10.721Z,510.00
2022-12-26T18:21:10.736Z,512.00
2022-12-26T18:22:10.684Z,511.00
2022-12-26T18:23:10.673Z,512.00
2022-12-26T18:24:10.657Z,514.00
2022-12-26T18:25:10.653Z,513.00
2022-12-26T18:26:10.641Z,511.00
2022-12-26T18:27:10.635Z,514.00
2022-12-26T18:28:10.618Z,510.00
2022-12-26T18:29:10.610Z,511.00
2022-12-26T18:30:10.585Z,513.00
2022-12-26T18:31:10.601Z,507.00
2022-12-26T18:32:10.557Z,512.00
2022-12-26T18:33:10.531Z,511.00
2022-12-26T18:34:10.526Z,509.00
2022-12-26T18:35:10.517Z,507.00
2022-12-26T18:36:10.484Z,507.00
2022-12-26T18:37:10.467Z,507.00
2022-12-26T18:38:10.445Z,507.00
2022-12-26T18:39:10.431Z,508.00
2022-12-26T18:40:10.405Z,510.00
2022-12-26T18:41:10.402Z,513.00
2022-12-26T18:42:10.391Z,509.00
2022-12-26T18:43:10.377Z,508.00
2022-12-26T18:44:10.337Z,507.00
2022-12-26T18:45:10.334Z,509.00
2022-12-26T18:46:10.340Z,509.00
2022-12-26T18:47:10.277Z,504.00
2022-12-26T18:48:10.276Z,507.00
2022-12-26T18:49:10.253Z,507.00
2022-12-26T18:50:10.242Z,511.00
2022-12-26T18:51:10.219Z,510.00
2022-12-26T18:52:10.223Z,508.00
2022-12-26T18:53:10.194Z,503.00
2022-12-26T18:54:10.186Z,504.00
2022-12-26T18:55:10.151Z,506.00
2022-12-26T18:56:10.138Z,506.00
2022-12-26T18:57:10.139Z,504.00
2022-12-26T18:58:10.112Z,505.00
2022-12-26T19:00:10.086Z,507.00
2022-12-26T21:07:08.167Z,508.00
2022-12-26T21:08:08.166Z,508.00
2022-12-26T21:09:08.151Z,508.00
2022-12-26T21:10:08.147Z,508.00
2022-12-26T21:11:08.128Z,509.00
2022-12-26T21:12:08.139Z,508.00
2022-12-26T21:13:08.111Z,508.00
2022-12-26T21:15:08.080Z,509.00
2022-12-26T21:16:09.917Z,513.00
2022-12-26T21:17:08.169Z,509.00
2022-12-26T21:18:08.067Z,510.00
2022-12-26T21:19:14.741Z,512.00
2022-12-26T21:20:09.059Z,513.00
2022-12-26T21:21:08.026Z,510.00
2022-12-26T21:22:08.052Z,507.00
2022-12-26T21:23:08.024Z,512.00
2022-12-26T21:24:08.005Z,509.00
2022-12-26T21:25:08.000Z,512.00
2022-12-26T21:26:07.990Z,512.00
2022-12-26T21:27:08.083Z,511.00
2022-12-26T21:28:07.952Z,516.00
2022-12-26T21:29:07.933Z,509.00
2022-12-26T21:30:07.938Z,508.00
2022-12-26T21:31:08.016Z,513.00
2022-12-26T21:32:07.924Z,515.00
2022-12-26T21:34:07.921Z,515.00
2022-12-26T21:35:07.908Z,512.00
2022-12-26T21:36:07.897Z,512.00
2022-12-26T21:37:07.897Z,513.00
2022-12-26T21:38:07.881Z,516.00
2022-12-26T21:39:07.871Z,508.00
2022-12-26T21:40:07.929Z,515.00
2022-12-26T21:41:07.847Z,515.00
2022-12-26T21:42:07.839Z,515.00
2022-12-26T21:44:07.821Z,515.00
2022-12-26T21:45:07.819Z,512.00
2022-12-26T21:46:07.860Z,516.00
2022-12-26T21:47:07.812Z,514.00
2022-12-26T21:48:07.803Z,514.00
2022-12-26T21:49:07.791Z,516.00
2022-12-26T21:50:07.783Z,513.00
2022-12-26T21:51:07.783Z,519.00
2022-12-26T21:52:07.780Z,514.00
2022-12-26T21:53:07.778Z,510.00
2022-12-26T21:54:07.772Z,511.00
2022-12-26T21:55:07.781Z,514.00
2022-12-26T21:56:07.770Z,510.00
2022-12-26T21:57:07.750Z,509.00
2022-12-26T21:58:07.737Z,509.00
2022-12-26T21:59:07.739Z,513.00
2022-12-26T22:00:07.723Z,509.00
2022-12-26T22:01:07.845Z,509.00
2022-12-26T22:02:07.816Z,507.00
2022-12-26T22:03:07.721Z,511.00
2022-12-26T22:04:07.712Z,515.00
2022-12-26T22:05:07.683Z,508.00
2022-12-26T22:06:07.685Z,508.00
2022-12-26T22:07:07.654Z,509.00
2022-12-26T22:08:07.653Z,511.00
2022-12-26T22:09:07.661Z,509.00
2022-12-26T22:10:07.631Z,505.00
2022-12-26T22:11:07.675Z,504.00
2022-12-26T22:12:07.611Z,510.00
2022-12-26T22:13:07.589Z,511.00
2022-12-26T22:14:07.567Z,504.00
2022-12-26T22:15:07.562Z,512.00
2022-12-26T22:16:07.739Z,506.00
2022-12-26T22:17:07.544Z,505.00
2022-12-26T22:18:07.535Z,508.00
2022-12-26T22:19:07.533Z,507.00
2022-12-26T22:20:07.505Z,508.00
2022-12-26T22:22:07.519Z,508.00
2022-12-26T22:23:07.479Z,506.00
2022-12-26T22:24:07.457Z,508.00
2022-12-26T22:25:07.456Z,509.00
2022-12-26T22:26:07.460Z,508.00
2022-12-26T22:27:07.417Z,506.00
2022-12-26T22:28:07.419Z,509.00
2022-12-26T22:29:07.391Z,510.00
2022-12-26T22:30:07.384Z,512.00
2022-12-26T22:31:07.391Z,511.00
2022-12-26T22:32:07.372Z,505.00
2022-12-26T22:33:07.353Z,508.00
2022-12-26T22:35:08.984Z,509.00
2022-12-26T22:36:07.320Z,513.00
2022-12-26T22:37:07.288Z,515.00
2022-12-26T22:38:07.282Z,513.00
2022-12-26T22:39:07.284Z,516.00
2022-12-26T22:40:07.258Z,509.00
2022-12-26T22:41:07.254Z,512.00
2022-12-26T22:42:07.229Z,514.00
2022-12-26T22:43:07.207Z,517.00
2022-12-26T22:45:07.181Z,514.00
2022-12-26T22:46:07.254Z,511.00
2022-12-26T22:47:07.155Z,514.00
2022-12-26T22:48:07.136Z,512.00
2022-12-26T22:49:07.134Z,512.00
2022-12-26T22:50:07.124Z,510.00
2022-12-26T22:51:07.117Z,510.00
2022-12-26T22:52:09.882Z,512.00
2022-12-26T22:54:07.066Z,513.00
2022-12-26T23:11:06.823Z,516.00
2022-12-26T23:12:06.812Z,513.00
2022-12-26T23:13:06.801Z,516.00
2022-12-26T23:14:06.787Z,520.00
2022-12-26T23:15:06.802Z,510.00
2022-12-26T23:16:06.801Z,510.00
2022-12-26T23:17:06.763Z,512.00
2022-12-26T23:18:06.742Z,517.00
2022-12-26T23:19:06.723Z,515.00
2022-12-26T23:20:06.733Z,512.00
2022-12-26T23:21:06.697Z,518.00
2022-12-26T23:22:06.737Z,520.00
2022-12-26T23:24:06.685Z,516.00
2022-12-26T23:25:06.678Z,515.00
2022-12-26T23:26:06.650Z,511.00
2022-12-26T23:27:11.745Z,512.00
2022-12-26T23:30:06.631Z,514.00
2022-12-26T23:31:06.689Z,517.00
2022-12-26T23:32:06.619Z,519.00
2022-12-26T23:33:06.581Z,514.00
2022-12-26T23:34:06.597Z,515.00
2022-12-26T23:35:06.562Z,515.00
2022-12-26T23:36:06.541Z,513.00
2022-12-26T23:37:06.542Z,518.00
2022-12-26T23:38:06.519Z,517.00
2022-12-26T23:39:06.525Z,519.00
